Little Deer Isle, ME (04650)

7:45 AM EST on December 06, 2016 (GMT -0500)
APRSWXNET | | Change Station

Elev 166 ft 44.24 °N, 68.67 °W | Updated 37 minutes ago

Mostly Cloudy
Mostly Cloudy
24 °F
Feels Like 24 °F
N
0
Wind Variable Wind from North
Gusts 0.0 mph

Today
High -- | Low -- °F
--% Chance of Precip.
Yesterday
High -- | Low -- °F
Precip. -- in
Pressure 30.09 in
Visibility 10.0 miles
Clouds Mostly Cloudy 2400 ft
Windchill 24 °F
Dew Point 23 °F
Humidity 95%
Rainfall in
Snow Depth Not available.
6:56 AM 3:55 PM
Waxing Crescent, 41% visible
METAR KBHB 061156Z AUTO 00000KT 10SM BKN024 M07/M07 A3007 RMK AO2 SLP187 70002 T10671072 11028 21067 51017 FZRANO
Pressure 30.09 in
Visibility 10.0 miles
Clouds Mostly Cloudy 2400 ft
Windchill 24 °F
Dew Point 23 °F
Humidity 95%
Rainfall in
Snow Depth Not available.
6:56 AM 3:55 PM
Waxing Crescent, 41% visible
METAR KBHB 061156Z AUTO 00000KT 10SM BKN024 M07/M07 A3007 RMK AO2 SLP187 70002 T10671072 11028 21067 51017 FZRANO

10-Day Weather Forecast

Almanac

Astronomy

Dec. 06, 2016 Rise Set
Actual Time
Civil Twilight
Nautical Twilight
Astronomical Twilight
Moon
Length of Visible Light
Length of Day
Tomorrow will be .
, % of the Moon is Illuminated

Today's Extremes

State Highs State Lows

Community

WunderPhotos

Upload Photos

1,955,938 photos uploaded!

WunderBlog® & News

Nearby

Air Quality

  Air Quality AQ Index Pollutant
Not available.

Snow Depth

Station Depth Elevation

Earthquake Activity

City Distance Mag. Time & Date
Minimum magnitude displayed is 2.5.

Coastal Water Temperatures

Place Temperature

Stations

Nearby Weather Stations

Station Location Temp. Windchill Dew Point Humidity Wind Precip. Elev Updated Type
                   

Watches & Warnings

There are currently no watches in effect.